createdAt,value
2017-12-25T00:00:35.377Z,10.40
2017-12-25T00:01:38.642Z,10.40
2017-12-25T00:02:41.153Z,10.40
2017-12-25T00:03:43.761Z,10.40
2017-12-25T00:04:46.279Z,10.40
2017-12-25T00:05:49.554Z,10.40
2017-12-25T00:06:52.021Z,10.40
2017-12-25T00:07:54.566Z,10.40
2017-12-25T00:08:58.614Z,10.40
2017-12-25T00:10:01.874Z,10.40
2017-12-25T00:11:05.113Z,10.40
2017-12-25T00:12:08.356Z,10.40
2017-12-25T00:13:11.583Z,10.40
2017-12-25T00:14:14.137Z,10.30
2017-12-25T00:15:17.360Z,10.40
2017-12-25T00:16:20.615Z,10.40
2017-12-25T00:17:23.905Z,10.40
2017-12-25T00:18:26.398Z,10.40
2017-12-25T00:19:29.232Z,10.40
2017-12-25T00:20:32.581Z,10.40
2017-12-25T00:21:35.714Z,10.40
2017-12-25T00:22:38.248Z,10.40
2017-12-25T00:23:40.748Z,10.40
2017-12-25T00:24:44.016Z,10.40
2017-12-25T00:25:46.486Z,10.40
2017-12-25T00:26:49.080Z,10.40
2017-12-25T00:27:51.579Z,10.40
2017-12-25T00:28:54.830Z,10.40
2017-12-25T00:29:57.301Z,10.30
2017-12-25T00:30:59.869Z,10.40
2017-12-25T00:32:02.947Z,10.40
2017-12-25T00:33:05.968Z,10.40
2017-12-25T00:34:08.470Z,10.40
2017-12-25T00:35:11.680Z,10.40
2017-12-25T00:36:15.074Z,10.40
2017-12-25T00:37:17.605Z,10.40
2017-12-25T00:38:20.061Z,10.40
2017-12-25T00:39:22.561Z,10.40
2017-12-25T00:40:25.029Z,10.40
2017-12-25T00:41:28.273Z,10.40
2017-12-25T00:42:30.779Z,10.40
2017-12-25T00:43:33.220Z,10.40
2017-12-25T00:44:35.720Z,10.40
2017-12-25T00:45:38.203Z,10.40
2017-12-25T00:46:40.715Z,10.30
2017-12-25T00:47:43.967Z,10.40
2017-12-25T00:48:47.215Z,10.40
2017-12-25T00:49:50.591Z,10.40
2017-12-25T00:50:53.068Z,10.30
2017-12-25T00:51:55.516Z,10.30
2017-12-25T00:52:58.038Z,10.30
2017-12-25T00:54:00.560Z,10.30
2017-12-25T00:55:03.117Z,10.30
2017-12-25T00:56:05.580Z,10.30
2017-12-25T00:57:08.041Z,10.30
2017-12-25T00:58:10.589Z,10.30
2017-12-25T00:59:13.107Z,10.30
2017-12-25T01:00:15.598Z,10.30
2017-12-25T01:01:18.061Z,10.30
2017-12-25T01:02:20.521Z,10.30
2017-12-25T01:03:22.993Z,10.30
2017-12-25T01:04:25.563Z,10.30
2017-12-25T01:05:28.282Z,10.30
2017-12-25T01:06:30.820Z,10.30
2017-12-25T01:07:33.282Z,10.30
2017-12-25T01:08:36.542Z,10.30
2017-12-25T01:09:39.054Z,10.30
2017-12-25T01:10:42.322Z,10.20
2017-12-25T01:11:44.776Z,10.20
2017-12-25T01:12:47.306Z,10.30
2017-12-25T01:13:49.776Z,10.30
2017-12-25T01:14:53.046Z,10.30
2017-12-25T01:15:55.537Z,10.20
2017-12-25T01:16:58.764Z,10.20
2017-12-25T01:18:01.308Z,10.20
2017-12-25T01:19:04.598Z,10.20
2017-12-25T01:20:07.101Z,10.20
2017-12-25T01:21:09.626Z,10.20
2017-12-25T01:22:12.090Z,10.20
2017-12-25T01:23:15.390Z,10.20
2017-12-25T01:24:18.628Z,10.20
2017-12-25T01:25:21.115Z,10.20
2017-12-25T01:26:23.605Z,10.20
2017-12-25T01:27:26.098Z,10.20
2017-12-25T01:28:29.372Z,10.20
2017-12-25T01:29:31.873Z,10.20
2017-12-25T01:30:34.385Z,10.20
2017-12-25T01:31:37.644Z,10.20
2017-12-25T01:32:40.096Z,10.20
2017-12-25T01:33:42.574Z,10.20
2017-12-25T01:34:45.038Z,10.20
2017-12-25T01:35:47.706Z,10.20
2017-12-25T01:36:50.353Z,10.20
2017-12-25T01:37:52.890Z,10.20
2017-12-25T01:38:55.440Z,10.20
2017-12-25T01:39:59.677Z,10.10
2017-12-25T01:41:02.881Z,10.10
2017-12-25T01:42:05.461Z,10.10
2017-12-25T01:43:08.723Z,10.10
2017-12-25T01:44:11.286Z,10.10
2017-12-25T01:45:13.853Z,10.10
2017-12-25T01:46:16.312Z,10.10
2017-12-25T01:47:18.808Z,10.10
2017-12-25T01:48:21.284Z,10.10
2017-12-25T01:49:23.750Z,10.10
2017-12-25T01:50:26.250Z,10.10
2017-12-25T01:51:29.509Z,10.10
2017-12-25T01:52:32.860Z,10.10
2017-12-25T01:53:37.336Z,10.10
2017-12-25T01:54:39.955Z,10.10
2017-12-25T01:55:43.204Z,10.10
2017-12-25T01:56:45.682Z,10.10
2017-12-25T01:57:51.831Z,10.10
2017-12-25T01:58:59.385Z,10.10
2017-12-25T02:00:01.881Z,10.10
2017-12-25T02:01:07.869Z,10.10
2017-12-25T02:02:13.154Z,10.10
2017-12-25T02:03:16.568Z,10.10
2017-12-25T02:04:22.534Z,10.00
2017-12-25T02:05:46.424Z,10.00
2017-12-25T02:07:00.799Z,10.00
2017-12-25T02:08:22.852Z,10.00
2017-12-25T02:09:26.029Z,10.00
2017-12-25T02:10:28.576Z,10.00
2017-12-25T02:11:31.065Z,10.00
2017-12-25T02:12:33.526Z,10.00
2017-12-25T02:13:36.802Z,10.00
2017-12-25T02:14:39.351Z,10.00
2017-12-25T02:15:41.866Z,10.00
2017-12-25T02:16:44.434Z,10.00
2017-12-25T02:17:47.031Z,10.00
2017-12-25T02:18:49.502Z,10.00
2017-12-25T02:19:52.729Z,10.00
2017-12-25T02:20:55.292Z,10.00
2017-12-25T02:21:57.865Z,10.00
2017-12-25T02:23:01.136Z,10.00
2017-12-25T02:24:04.387Z,10.00
2017-12-25T02:25:07.461Z,10.00
2017-12-25T02:26:09.965Z,10.00
2017-12-25T02:27:13.249Z,10.00
2017-12-25T02:28:15.843Z,10.00
2017-12-25T02:29:18.316Z,10.00
2017-12-25T02:30:20.836Z,10.00
2017-12-25T02:31:23.338Z,10.00
2017-12-25T02:32:25.858Z,10.00
2017-12-25T02:33:28.366Z,10.00
2017-12-25T02:34:30.855Z,10.00
2017-12-25T02:35:33.369Z,10.00
2017-12-25T02:36:35.846Z,10.00
2017-12-25T02:37:38.351Z,10.00
2017-12-25T02:38:42.631Z,10.00
2017-12-25T02:39:45.894Z,10.00
2017-12-25T02:40:48.361Z,10.00
2017-12-25T02:41:50.952Z,10.00
2017-12-25T02:42:53.406Z,10.00
2017-12-25T02:43:57.407Z,10.00
2017-12-25T02:44:59.993Z,10.00
2017-12-25T02:46:02.482Z,10.00
2017-12-25T02:47:04.966Z,10.00
2017-12-25T02:48:08.338Z,10.00
2017-12-25T02:49:10.841Z,10.00
2017-12-25T02:50:14.090Z,10.00
2017-12-25T02:51:17.305Z,10.00
2017-12-25T02:52:19.981Z,10.00
2017-12-25T02:53:22.480Z,10.00
2017-12-25T02:54:25.834Z,10.00
2017-12-25T02:55:30.270Z,10.00
2017-12-25T02:56:33.710Z,10.00
2017-12-25T02:57:36.185Z,9.90
2017-12-25T02:58:38.657Z,10.00
2017-12-25T02:59:41.230Z,10.00
2017-12-25T03:00:44.509Z,9.90
2017-12-25T03:01:46.987Z,9.90
2017-12-25T03:02:50.899Z,9.90
2017-12-25T03:03:53.516Z,9.90
2017-12-25T03:04:56.034Z,9.90
2017-12-25T03:05:58.502Z,9.90
2017-12-25T03:07:00.968Z,9.90
2017-12-25T03:08:03.437Z,9.80
2017-12-25T03:09:06.022Z,9.90
2017-12-25T03:10:08.492Z,9.90
2017-12-25T03:11:10.980Z,9.80
2017-12-25T03:12:13.442Z,9.90
2017-12-25T03:13:15.928Z,9.90
2017-12-25T03:14:18.475Z,9.80
2017-12-25T03:15:20.993Z,9.80
2017-12-25T03:16:23.497Z,9.90
2017-12-25T03:17:25.974Z,9.90
2017-12-25T03:18:28.591Z,9.90
2017-12-25T03:19:31.653Z,9.90
2017-12-25T03:20:34.921Z,9.90
2017-12-25T03:21:37.430Z,9.90
2017-12-25T03:22:40.645Z,9.90
2017-12-25T03:23:43.145Z,9.80
2017-12-25T03:24:45.705Z,9.80
2017-12-25T03:25:48.208Z,9.80
2017-12-25T03:26:50.717Z,9.80
2017-12-25T03:27:53.173Z,9.80
2017-12-25T03:28:55.753Z,9.80
2017-12-25T03:29:58.217Z,9.80
2017-12-25T03:31:00.782Z,9.80
2017-12-25T03:32:03.310Z,9.80
2017-12-25T03:33:06.554Z,9.80
2017-12-25T03:34:09.796Z,9.80
2017-12-25T03:35:13.052Z,9.80
2017-12-25T03:36:15.547Z,9.80
2017-12-25T03:37:18.134Z,9.80
2017-12-25T03:38:20.666Z,9.80
2017-12-25T03:39:23.117Z,9.80
2017-12-25T03:40:25.585Z,9.80
2017-12-25T03:41:28.908Z,9.70
2017-12-25T03:42:32.157Z,9.80
2017-12-25T03:43:34.621Z,9.70
2017-12-25T03:44:37.242Z,9.70
2017-12-25T03:45:39.816Z,9.70
2017-12-25T03:46:42.344Z,9.70
2017-12-25T03:47:44.826Z,9.70
2017-12-25T03:48:47.301Z,9.70
2017-12-25T03:49:50.586Z,9.70
2017-12-25T03:50:53.031Z,9.70
2017-12-25T03:51:55.509Z,9.70
2017-12-25T03:52:58.547Z,9.70
2017-12-25T03:54:01.152Z,9.70
2017-12-25T03:55:04.422Z,9.70
2017-12-25T03:56:06.869Z,9.70
2017-12-25T03:57:09.363Z,9.70
2017-12-25T03:58:11.918Z,9.70
2017-12-25T03:59:14.382Z,9.70
2017-12-25T04:00:17.018Z,9.70
2017-12-25T04:01:19.530Z,9.70
2017-12-25T04:02:22.102Z,9.70
2017-12-25T04:03:24.587Z,9.70
2017-12-25T04:04:27.039Z,9.70
2017-12-25T04:05:30.305Z,9.70
2017-12-25T04:06:32.790Z,9.70
2017-12-25T04:07:36.144Z,9.70
2017-12-25T04:08:39.404Z,9.70
2017-12-25T04:09:41.914Z,9.70
2017-12-25T04:10:45.203Z,9.70
2017-12-25T04:11:47.726Z,9.70
2017-12-25T04:12:50.182Z,9.70
2017-12-25T04:13:52.938Z,9.70
2017-12-25T04:14:56.294Z,9.70
2017-12-25T04:15:59.554Z,9.60
2017-12-25T04:17:02.038Z,9.60
2017-12-25T04:18:04.503Z,9.60
2017-12-25T04:19:06.966Z,9.70
2017-12-25T04:20:11.481Z,9.60
2017-12-25T04:21:14.704Z,9.60
2017-12-25T04:22:18.835Z,9.60
2017-12-25T04:23:21.297Z,9.60
2017-12-25T04:24:24.532Z,9.60
2017-12-25T04:25:27.002Z,9.60
2017-12-25T04:26:29.461Z,9.60
2017-12-25T04:27:31.953Z,9.60
2017-12-25T04:28:34.417Z,9.60
2017-12-25T04:29:37.674Z,9.60
2017-12-25T04:30:40.290Z,9.60
2017-12-25T04:31:42.755Z,9.60
2017-12-25T04:32:45.230Z,9.60
2017-12-25T04:33:47.682Z,9.60
2017-12-25T04:34:50.974Z,9.60
2017-12-25T04:35:53.421Z,9.60
2017-12-25T04:36:55.882Z,9.60
2017-12-25T04:37:59.238Z,9.60
2017-12-25T04:39:01.746Z,9.60
2017-12-25T04:40:04.983Z,9.60
2017-12-25T04:41:08.215Z,9.60
2017-12-25T04:42:10.677Z,9.60
2017-12-25T04:43:13.195Z,9.60
2017-12-25T04:44:15.712Z,9.60
2017-12-25T04:45:18.917Z,9.50
2017-12-25T04:46:21.423Z,9.50
2017-12-25T04:47:24.387Z,9.60
2017-12-25T04:48:27.704Z,9.60
2017-12-25T04:49:30.276Z,9.50
2017-12-25T04:50:33.790Z,9.50
2017-12-25T04:51:36.246Z,9.50
2017-12-25T04:52:39.483Z,9.50
2017-12-25T04:53:42.041Z,9.50
2017-12-25T04:54:44.517Z,9.50
2017-12-25T04:55:47.076Z,9.50
2017-12-25T04:56:50.434Z,9.50
2017-12-25T04:57:52.889Z,9.50
2017-12-25T04:58:55.470Z,9.50
2017-12-25T04:59:58.790Z,9.50
2017-12-25T05:01:02.771Z,9.50
2017-12-25T05:02:05.997Z,9.50
2017-12-25T05:03:08.476Z,9.40
2017-12-25T05:04:10.988Z,9.40
2017-12-25T05:05:13.479Z,9.50
2017-12-25T05:06:16.282Z,9.40
2017-12-25T05:07:18.853Z,9.40
2017-12-25T05:08:22.121Z,9.40
2017-12-25T05:09:24.605Z,9.40
2017-12-25T05:10:27.177Z,9.40
2017-12-25T05:11:29.629Z,9.30
2017-12-25T05:12:32.090Z,9.30
2017-12-25T05:13:36.037Z,9.30
2017-12-25T05:14:39.595Z,9.30
2017-12-25T05:15:42.996Z,9.30
2017-12-25T05:16:45.498Z,9.30
2017-12-25T05:17:47.980Z,9.30
2017-12-25T05:18:50.676Z,9.30
2017-12-25T05:19:53.178Z,9.30
2017-12-25T05:20:55.658Z,9.30
2017-12-25T05:21:58.214Z,9.20
2017-12-25T05:23:00.674Z,9.20
2017-12-25T05:24:03.175Z,9.20
2017-12-25T05:25:06.410Z,9.20
2017-12-25T05:26:08.887Z,9.20
2017-12-25T05:27:11.392Z,9.20
2017-12-25T05:28:13.854Z,9.20
2017-12-25T05:29:16.341Z,9.20
2017-12-25T05:30:19.227Z,9.20
2017-12-25T05:31:22.584Z,9.20
2017-12-25T05:32:25.066Z,9.20
2017-12-25T05:33:27.526Z,9.20
2017-12-25T05:34:30.794Z,9.20
2017-12-25T05:35:33.241Z,9.10
2017-12-25T05:36:35.937Z,9.20
2017-12-25T05:37:38.414Z,9.10
2017-12-25T05:38:40.886Z,9.10
2017-12-25T05:39:43.454Z,9.20
2017-12-25T05:40:46.017Z,9.20
2017-12-25T05:41:49.344Z,9.20
2017-12-25T05:42:51.789Z,9.10
2017-12-25T05:43:55.178Z,9.10
2017-12-25T05:44:57.675Z,9.10
2017-12-25T05:46:00.964Z,9.10
2017-12-25T05:47:03.860Z,9.10
2017-12-25T05:48:06.397Z,9.10
2017-12-25T05:49:08.955Z,9.10
2017-12-25T05:50:11.581Z,9.10
2017-12-25T05:51:14.244Z,9.10
2017-12-25T05:52:16.834Z,9.10
2017-12-25T05:53:19.443Z,9.10
2017-12-25T05:54:21.942Z,9.10
2017-12-25T05:55:25.170Z,9.10
2017-12-25T05:56:27.643Z,9.10
2017-12-25T05:57:30.143Z,9.10
2017-12-25T05:58:32.816Z,9.10
2017-12-25T05:59:35.293Z,9.10
2017-12-25T06:00:37.742Z,9.10
2017-12-25T06:01:40.242Z,9.10
2017-12-25T06:02:43.695Z,9.10
2017-12-25T06:03:46.233Z,9.10
2017-12-25T06:04:48.710Z,9.10
2017-12-25T06:05:51.332Z,9.10
2017-12-25T06:06:53.940Z,9.00
2017-12-25T06:07:56.594Z,9.00
2017-12-25T06:08:59.310Z,9.00
2017-12-25T06:10:01.867Z,9.00
2017-12-25T06:11:04.372Z,9.10
2017-12-25T06:12:06.867Z,9.00
2017-12-25T06:13:09.329Z,9.10
2017-12-25T06:14:11.838Z,9.10
2017-12-25T06:15:14.330Z,9.10
2017-12-25T06:16:16.793Z,9.10
2017-12-25T06:17:19.290Z,9.10
2017-12-25T06:18:21.863Z,9.20
2017-12-25T06:19:25.238Z,9.10
2017-12-25T06:20:27.692Z,9.20
2017-12-25T06:21:30.607Z,9.20
2017-12-25T06:22:33.086Z,9.20
2017-12-25T06:23:35.581Z,9.20
2017-12-25T06:24:38.204Z,9.20
2017-12-25T06:25:40.787Z,9.20
2017-12-25T06:26:44.043Z,9.20
2017-12-25T06:27:46.611Z,9.10
2017-12-25T06:28:49.057Z,9.10
2017-12-25T06:29:51.568Z,9.10
2017-12-25T06:30:55.184Z,9.10
2017-12-25T06:31:57.666Z,9.10
2017-12-25T06:33:00.936Z,9.10
2017-12-25T06:34:03.415Z,9.10
2017-12-25T06:35:05.918Z,9.10
2017-12-25T06:36:08.385Z,9.10
2017-12-25T06:37:11.621Z,9.10
2017-12-25T06:38:14.093Z,9.10
2017-12-25T06:39:16.703Z,9.10
2017-12-25T06:40:19.561Z,9.10
2017-12-25T06:41:22.197Z,9.10
2017-12-25T06:42:25.493Z,9.00
2017-12-25T06:43:28.731Z,9.10
2017-12-25T06:44:31.963Z,9.00
2017-12-25T06:45:34.422Z,9.00
2017-12-25T06:47:46.535Z,9.00
2017-12-25T06:48:49.166Z,9.00
2017-12-25T06:49:51.645Z,9.00
2017-12-25T06:50:55.622Z,8.90
2017-12-25T06:51:59.509Z,8.90
2017-12-25T06:53:02.026Z,8.90
2017-12-25T06:54:04.585Z,9.00
2017-12-25T06:55:07.077Z,9.00
2017-12-25T06:56:09.601Z,8.90
2017-12-25T06:57:12.912Z,8.90
2017-12-25T06:58:15.468Z,8.90
2017-12-25T06:59:18.799Z,8.90
2017-12-25T07:00:22.025Z,8.90
2017-12-25T07:01:24.502Z,8.90
2017-12-25T07:02:27.075Z,8.90
2017-12-25T07:03:29.597Z,8.90
2017-12-25T07:04:32.073Z,8.90
2017-12-25T07:05:34.882Z,8.90
2017-12-25T07:06:38.125Z,8.90
2017-12-25T07:07:40.585Z,8.90
2017-12-25T07:08:43.213Z,8.90
2017-12-25T07:09:46.217Z,8.90
2017-12-25T07:10:48.697Z,8.90
2017-12-25T07:11:51.185Z,8.90
2017-12-25T07:12:54.701Z,8.90
2017-12-25T07:13:57.964Z,8.90
2017-12-25T07:15:00.555Z,8.90
2017-12-25T07:16:03.804Z,8.90
2017-12-25T07:17:06.512Z,8.90
2017-12-25T07:18:09.041Z,8.90
2017-12-25T07:19:11.613Z,8.90
2017-12-25T07:20:14.845Z,8.90
2017-12-25T07:21:18.077Z,8.90
2017-12-25T07:22:21.360Z,8.90
2017-12-25T07:23:23.922Z,8.90
2017-12-25T07:24:26.513Z,8.90
2017-12-25T07:25:28.973Z,8.90
2017-12-25T07:26:31.711Z,8.90
2017-12-25T07:27:34.891Z,8.90
2017-12-25T07:28:38.478Z,8.90
2017-12-25T07:29:42.104Z,8.80
2017-12-25T07:30:44.570Z,8.90
2017-12-25T07:31:47.035Z,8.90
2017-12-25T07:32:50.287Z,8.90
2017-12-25T07:33:52.745Z,8.80
2017-12-25T07:34:56.759Z,8.80
2017-12-25T07:36:00.093Z,8.80
2017-12-25T07:37:03.333Z,8.80
2017-12-25T07:38:05.832Z,8.80
2017-12-25T07:39:08.325Z,8.70
2017-12-25T07:40:10.961Z,8.80
2017-12-25T07:41:13.433Z,8.80
2017-12-25T07:42:15.949Z,8.80
2017-12-25T07:43:20.296Z,8.80
2017-12-25T07:44:22.756Z,8.80
2017-12-25T07:45:26.078Z,8.70
2017-12-25T07:46:28.517Z,8.70
2017-12-25T07:47:31.152Z,8.70
2017-12-25T07:48:34.423Z,8.70
2017-12-25T07:49:36.905Z,8.70
2017-12-25T07:50:39.356Z,8.70
2017-12-25T07:51:42.588Z,8.70
2017-12-25T07:52:45.160Z,8.70
2017-12-25T07:53:48.138Z,8.70
2017-12-25T07:54:50.674Z,8.70
2017-12-25T07:55:53.961Z,8.70
2017-12-25T07:56:56.459Z,8.70
2017-12-25T07:57:59.717Z,8.70
2017-12-25T07:59:02.206Z,8.70
2017-12-25T08:00:04.794Z,8.70
2017-12-25T08:01:07.429Z,8.70
2017-12-25T08:02:09.934Z,8.70
2017-12-25T08:03:12.455Z,8.70
2017-12-25T08:04:14.913Z,8.70
2017-12-25T08:05:17.378Z,8.70
2017-12-25T08:06:20.624Z,8.80
2017-12-25T08:07:23.845Z,8.70
2017-12-25T08:08:26.341Z,8.70
2017-12-25T08:09:28.796Z,8.80
2017-12-25T08:10:31.322Z,8.70
2017-12-25T08:11:33.881Z,8.80
2017-12-25T08:12:36.334Z,8.80
2017-12-25T08:13:39.037Z,8.80
2017-12-25T08:14:41.482Z,8.80
2017-12-25T08:15:43.975Z,8.80
2017-12-25T08:16:46.480Z,8.80
2017-12-25T08:17:48.975Z,8.80
2017-12-25T08:18:51.438Z,8.80
2017-12-25T08:19:54.710Z,8.90
2017-12-25T08:20:57.199Z,8.90
2017-12-25T08:21:59.631Z,8.90
2017-12-25T08:23:02.858Z,8.90
2017-12-25T08:24:06.105Z,8.90
2017-12-25T08:25:08.598Z,8.90
2017-12-25T08:26:11.110Z,8.90
2017-12-25T08:27:13.588Z,9.00
2017-12-25T08:28:17.354Z,8.90
2017-12-25T08:29:20.616Z,9.00
2017-12-25T08:30:23.057Z,9.00
2017-12-25T08:31:25.542Z,9.00
2017-12-25T08:32:28.903Z,9.00
2017-12-25T08:33:31.371Z,9.00
2017-12-25T08:34:33.858Z,9.00
2017-12-25T08:35:36.309Z,9.10
2017-12-25T08:36:38.781Z,9.10
2017-12-25T08:37:42.133Z,9.10
2017-12-25T08:38:44.641Z,9.10
2017-12-25T08:39:47.934Z,9.10
2017-12-25T08:40:50.555Z,9.10
2017-12-25T08:41:53.005Z,9.10
2017-12-25T08:42:55.499Z,9.10
2017-12-25T08:43:57.953Z,9.10
2017-12-25T08:45:00.491Z,9.20
2017-12-25T08:46:02.989Z,9.20
2017-12-25T08:47:05.507Z,9.20
2017-12-25T08:48:08.030Z,9.20
2017-12-25T08:49:10.668Z,9.20
2017-12-25T08:50:13.130Z,9.20
2017-12-25T08:51:15.591Z,9.20
2017-12-25T08:52:18.155Z,9.20
2017-12-25T08:53:20.634Z,9.30
2017-12-25T08:54:23.130Z,9.30
2017-12-25T08:55:25.647Z,9.30
2017-12-25T08:56:28.125Z,9.30
2017-12-25T08:57:30.633Z,9.30
2017-12-25T08:58:33.844Z,9.20
2017-12-25T08:59:36.310Z,9.20
2017-12-25T09:00:39.539Z,9.20
2017-12-25T09:01:42.781Z,9.20
2017-12-25T09:02:46.131Z,9.10
2017-12-25T09:03:49.422Z,9.10
2017-12-25T09:04:51.905Z,9.10
2017-12-25T09:05:54.370Z,9.10
2017-12-25T09:06:57.505Z,9.10
2017-12-25T09:08:00.138Z,9.10
2017-12-25T09:09:02.812Z,9.10
2017-12-25T09:10:05.321Z,9.00
2017-12-25T09:11:07.938Z,9.00
2017-12-25T09:12:10.388Z,9.00
2017-12-25T09:13:13.664Z,9.00
2017-12-25T09:14:16.110Z,9.00
2017-12-25T09:15:18.589Z,9.00
2017-12-25T09:16:21.842Z,9.00
2017-12-25T09:17:24.325Z,9.00
2017-12-25T09:18:26.854Z,9.00
2017-12-25T09:19:29.310Z,9.00
2017-12-25T09:20:31.869Z,9.00
2017-12-25T09:21:34.476Z,9.00
2017-12-25T09:22:37.159Z,8.90
2017-12-25T09:23:39.789Z,8.90
2017-12-25T09:24:42.307Z,8.90
2017-12-25T09:25:45.295Z,8.90
2017-12-25T09:26:47.859Z,9.00
2017-12-25T09:27:50.359Z,8.90
2017-12-25T09:28:53.669Z,9.00
2017-12-25T09:29:56.124Z,8.90
2017-12-25T09:30:58.718Z,9.00
2017-12-25T09:32:02.002Z,9.00
2017-12-25T09:33:04.627Z,9.00
2017-12-25T09:34:07.539Z,9.00
2017-12-25T09:35:10.220Z,9.00
2017-12-25T09:36:12.833Z,9.00
2017-12-25T09:37:15.435Z,9.00
2017-12-25T09:38:20.388Z,9.00
2017-12-25T09:39:23.760Z,9.00
2017-12-25T09:40:26.827Z,9.00
2017-12-25T09:41:29.285Z,9.00
2017-12-25T09:42:31.765Z,9.00
2017-12-25T09:43:34.290Z,9.00
2017-12-25T09:44:36.754Z,9.00
2017-12-25T09:45:39.265Z,9.00
2017-12-25T09:46:41.726Z,9.00
2017-12-25T09:47:44.949Z,9.10
2017-12-25T09:48:47.440Z,9.10
2017-12-25T09:49:49.902Z,9.00
2017-12-25T09:50:52.456Z,9.00
2017-12-25T09:51:55.688Z,9.00
2017-12-25T09:52:58.150Z,9.00
2017-12-25T09:54:00.608Z,9.00
2017-12-25T09:55:03.073Z,9.10
2017-12-25T09:56:06.411Z,9.00
2017-12-25T09:57:09.670Z,9.00
2017-12-25T09:58:12.117Z,9.00
2017-12-25T09:59:14.620Z,9.00
2017-12-25T10:00:17.087Z,9.00
2017-12-25T10:01:19.561Z,9.00
2017-12-25T10:02:22.018Z,9.10
2017-12-25T10:03:24.484Z,9.00
2017-12-25T10:04:26.965Z,9.00
2017-12-25T10:05:29.475Z,9.10
2017-12-25T10:06:31.938Z,9.00
2017-12-25T10:07:34.590Z,9.10
2017-12-25T10:08:37.519Z,9.10
2017-12-25T10:09:39.993Z,9.00
2017-12-25T10:10:42.612Z,9.00
2017-12-25T10:11:45.140Z,9.10
2017-12-25T10:12:47.607Z,9.00
2017-12-25T10:13:50.170Z,9.00
2017-12-25T10:14:53.530Z,9.00
2017-12-25T10:15:56.001Z,9.00
2017-12-25T10:16:58.477Z,9.00
2017-12-25T10:18:00.978Z,9.00
2017-12-25T10:19:04.309Z,9.00
2017-12-25T10:20:06.934Z,9.00
2017-12-25T10:21:09.455Z,9.00
2017-12-25T10:22:11.942Z,9.00
2017-12-25T10:23:14.401Z,9.00
2017-12-25T10:24:16.860Z,9.00
2017-12-25T10:25:20.098Z,9.10
2017-12-25T10:26:23.441Z,9.10
2017-12-25T10:27:26.714Z,9.10
2017-12-25T10:28:29.178Z,9.10
2017-12-25T10:29:31.650Z,9.10
2017-12-25T10:30:34.198Z,9.00
2017-12-25T10:31:36.694Z,9.10
2017-12-25T10:32:39.934Z,9.10
2017-12-25T10:33:43.168Z,9.10
2017-12-25T10:34:46.429Z,9.10
2017-12-25T10:35:48.897Z,9.00
2017-12-25T10:36:51.379Z,9.10
2017-12-25T10:37:53.859Z,9.10
2017-12-25T10:38:56.425Z,9.10
2017-12-25T10:39:59.649Z,9.10
2017-12-25T10:41:02.925Z,9.10
2017-12-25T10:42:05.441Z,9.10
2017-12-25T10:43:08.673Z,9.10
2017-12-25T10:44:11.955Z,9.10
2017-12-25T10:45:14.666Z,9.10
2017-12-25T10:46:17.165Z,9.10
2017-12-25T10:47:20.548Z,9.10
2017-12-25T10:48:23.001Z,9.10
2017-12-25T10:49:25.489Z,9.10
2017-12-25T10:50:28.533Z,9.10
2017-12-25T10:51:31.010Z,9.10
2017-12-25T10:52:34.248Z,9.10
2017-12-25T10:53:36.798Z,9.10
2017-12-25T10:54:40.057Z,9.10
2017-12-25T10:55:42.515Z,9.10
2017-12-25T10:56:44.963Z,9.10
2017-12-25T10:57:47.425Z,9.10
2017-12-25T10:58:50.488Z,9.10
2017-12-25T10:59:52.969Z,9.10
2017-12-25T11:00:56.202Z,9.00
2017-12-25T11:01:58.662Z,9.00
2017-12-25T11:03:01.151Z,9.10
2017-12-25T11:04:03.608Z,9.10
2017-12-25T11:05:06.286Z,9.10
2017-12-25T11:06:08.722Z,9.10
2017-12-25T11:07:11.957Z,9.10
2017-12-25T11:08:14.460Z,9.10
2017-12-25T11:09:16.978Z,9.10
2017-12-25T11:10:19.506Z,9.00
2017-12-25T11:11:22.002Z,9.00
2017-12-25T11:12:24.458Z,9.00
2017-12-25T11:13:26.935Z,9.10
2017-12-25T11:14:30.158Z,9.10
2017-12-25T11:15:32.704Z,9.10
2017-12-25T11:16:35.937Z,9.10
2017-12-25T11:17:38.484Z,9.10
2017-12-25T11:18:40.934Z,9.20
2017-12-25T11:19:43.378Z,9.10
2017-12-25T11:20:45.838Z,9.10
2017-12-25T11:21:49.100Z,9.10
2017-12-25T11:22:51.590Z,9.10
2017-12-25T11:23:54.054Z,9.10
2017-12-25T11:24:56.544Z,9.10
2017-12-25T11:25:59.027Z,9.10
2017-12-25T11:27:01.494Z,9.10
2017-12-25T11:28:04.000Z,9.10
2017-12-25T11:29:06.465Z,9.10
2017-12-25T11:30:09.775Z,9.10
2017-12-25T11:31:12.224Z,9.10
2017-12-25T11:32:14.673Z,9.10
2017-12-25T11:33:17.154Z,9.10
2017-12-25T11:34:19.644Z,9.00
2017-12-25T11:35:22.077Z,9.00
2017-12-25T11:36:24.548Z,9.00
2017-12-25T11:37:27.005Z,9.00
2017-12-25T11:38:29.502Z,9.00
2017-12-25T11:39:32.709Z,9.00
2017-12-25T11:41:39.809Z,9.00
2017-12-25T11:42:42.270Z,9.00
2017-12-25T11:43:45.560Z,9.00
2017-12-25T11:44:48.038Z,9.00
2017-12-25T11:45:51.305Z,9.00
2017-12-25T11:46:53.759Z,9.00
2017-12-25T11:47:56.232Z,9.00
2017-12-25T11:48:59.534Z,9.00
2017-12-25T11:50:02.015Z,9.00
2017-12-25T11:51:04.473Z,9.00
2017-12-25T11:52:06.988Z,9.00
2017-12-25T11:53:09.459Z,9.00
2017-12-25T11:54:12.013Z,9.10
2017-12-25T11:55:14.537Z,9.00
2017-12-25T11:56:16.988Z,9.00
2017-12-25T11:57:19.476Z,9.00
2017-12-25T11:58:22.684Z,9.00
2017-12-25T11:59:25.210Z,9.00
2017-12-25T12:00:27.686Z,9.10
2017-12-25T12:01:30.141Z,9.00
2017-12-25T12:02:32.610Z,9.00
2017-12-25T12:03:35.879Z,9.00
2017-12-25T12:04:38.371Z,9.00
2017-12-25T12:05:41.601Z,9.00
2017-12-25T12:06:44.117Z,9.00
2017-12-25T12:07:46.590Z,9.10
2017-12-25T12:08:49.137Z,9.00
2017-12-25T12:09:51.597Z,9.00
2017-12-25T12:10:54.050Z,9.00
2017-12-25T12:11:57.291Z,9.10
2017-12-25T12:13:00.581Z,9.10
2017-12-25T12:14:03.066Z,9.10
2017-12-25T12:15:06.278Z,9.10
2017-12-25T12:16:10.249Z,9.10
2017-12-25T12:17:12.798Z,9.10
2017-12-25T12:18:15.289Z,9.10
2017-12-25T12:19:17.761Z,9.10
2017-12-25T12:20:20.230Z,9.00
2017-12-25T12:21:22.703Z,9.10
2017-12-25T12:22:26.464Z,9.10
2017-12-25T12:23:28.980Z,9.00
2017-12-25T12:24:31.528Z,9.10
2017-12-25T12:25:34.012Z,9.00
2017-12-25T12:26:37.238Z,9.10
2017-12-25T12:27:39.702Z,9.00
2017-12-25T12:28:42.173Z,9.10
2017-12-25T12:29:44.669Z,9.10
2017-12-25T12:30:47.164Z,9.10
2017-12-25T12:31:50.021Z,9.10
2017-12-25T12:32:52.524Z,9.00
2017-12-25T12:33:55.758Z,9.00
2017-12-25T12:34:58.268Z,9.00
2017-12-25T12:36:00.753Z,8.90
2017-12-25T12:37:03.237Z,8.90
2017-12-25T12:38:06.586Z,8.90
2017-12-25T12:39:09.814Z,8.90
2017-12-25T12:40:12.358Z,8.90
2017-12-25T12:41:14.899Z,8.90
2017-12-25T12:42:17.373Z,8.90
2017-12-25T12:43:19.957Z,8.90
2017-12-25T12:44:22.474Z,8.90
2017-12-25T12:45:24.987Z,8.90
2017-12-25T12:46:28.204Z,8.90
2017-12-25T12:47:30.662Z,8.90
2017-12-25T12:48:33.181Z,8.90
2017-12-25T12:49:35.649Z,8.90
2017-12-25T12:50:38.117Z,8.90
2017-12-25T12:51:41.410Z,8.90
2017-12-25T12:52:43.870Z,8.90
2017-12-25T12:53:46.373Z,8.90
2017-12-25T12:54:48.850Z,8.90
2017-12-25T12:55:51.329Z,8.90
2017-12-25T12:56:54.560Z,8.90
2017-12-25T12:57:57.030Z,8.90
2017-12-25T12:59:00.270Z,8.90
2017-12-25T13:00:02.738Z,8.90
2017-12-25T13:01:05.613Z,8.90
2017-12-25T13:02:08.841Z,8.90
2017-12-25T13:03:11.373Z,8.90
2017-12-25T13:04:14.625Z,8.90
2017-12-25T13:05:17.178Z,8.90
2017-12-25T13:06:20.419Z,8.90
2017-12-25T13:07:22.878Z,8.80
2017-12-25T13:08:25.377Z,8.90
2017-12-25T13:09:28.146Z,8.80
2017-12-25T13:10:30.597Z,8.80
2017-12-25T13:11:33.158Z,8.80
2017-12-25T13:12:35.630Z,8.90
2017-12-25T13:13:38.101Z,8.80
2017-12-25T13:14:40.571Z,8.80
2017-12-25T13:15:43.154Z,8.80
2017-12-25T13:16:45.649Z,8.80
2017-12-25T13:17:48.112Z,8.80
2017-12-25T13:18:50.633Z,8.80
2017-12-25T13:19:53.269Z,8.80
2017-12-25T13:20:55.737Z,8.80
2017-12-25T13:21:58.235Z,8.90
2017-12-25T13:23:00.700Z,8.80
2017-12-25T13:24:03.181Z,8.80
2017-12-25T13:25:05.732Z,8.90
2017-12-25T13:26:08.191Z,8.80
2017-12-25T13:27:11.602Z,8.80
2017-12-25T13:28:14.118Z,8.80
2017-12-25T13:29:16.577Z,8.90
2017-12-25T13:30:19.143Z,8.90
2017-12-25T13:31:21.605Z,8.80
2017-12-25T13:32:24.208Z,8.80
2017-12-25T13:33:26.721Z,8.80
2017-12-25T13:34:29.243Z,8.80
2017-12-25T13:35:31.723Z,8.80
2017-12-25T13:36:34.178Z,8.80
2017-12-25T13:37:37.449Z,8.80
2017-12-25T13:38:39.917Z,8.80
2017-12-25T13:39:42.387Z,8.80
2017-12-25T13:40:44.851Z,8.80
2017-12-25T13:41:47.293Z,8.80
2017-12-25T13:42:49.777Z,8.80
2017-12-25T13:43:52.293Z,8.80
2017-12-25T13:44:54.776Z,8.80
2017-12-25T13:45:58.046Z,8.80
2017-12-25T13:47:00.510Z,8.80
2017-12-25T13:48:03.108Z,8.80
2017-12-25T13:49:05.589Z,8.80
2017-12-25T13:50:08.831Z,8.80
2017-12-25T13:51:11.290Z,8.80
2017-12-25T13:52:13.762Z,8.80